Time;durP1;ratioP1;P1;durP2;ratioP2;P2;SDS_P1;SDS_P2;PMS_P1;PMS_P2;Temp;Humidity;BMP_temperature;BMP_pressure;BME280_temperature;BME280_humidity;BME280_pressure;Samples;Min_cycle;Max_cycle;Signal;HPM_P1;HPM_P2
2022/06/01 00:01:45;;;;;;;9.75;6.20;;;;;;;11.43;81.12;99617.66;5046749;28;20116;-85
2022/06/01 00:04:10;;;;;;;11.52;6.07;;;;;;;11.49;81.21;99632.91;5045857;28;20120;-85
2022/06/01 00:06:36;;;;;;;12.20;6.45;;;;;;;11.39;81.34;99627.50;5065821;28;20103;-84
2022/06/01 00:09:01;;;;;;;8.90;6.13;;;;;;;11.38;81.06;99626.66;5066342;28;20021;-85
2022/06/01 00:11:26;;;;;;;9.98;5.32;;;;;;;11.40;81.42;99623.66;5065330;28;20712;-84
2022/06/01 00:13:51;;;;;;;11.15;6.82;;;;;;;11.52;79.75;99621.47;5051108;28;20083;-85
2022/06/01 00:16:17;;;;;;;9.07;5.80;;;;;;;11.58;79.33;99624.19;5044083;28;20112;-84
2022/06/01 00:18:43;;;;;;;11.40;7.07;;;;;;;11.70;78.56;99615.69;5046408;28;20246;-85
2022/06/01 00:24:29;;;;;;;10.43;6.28;;;;;;;11.51;79.29;99624.47;5045768;28;20136;-84
2022/06/01 00:26:55;;;;;;;7.97;5.43;;;;;;;11.60;78.98;99624.72;5046278;28;20119;-84
2022/06/01 00:29:20;;;;;;;8.57;5.80;;;;;;;11.64;78.58;99623.91;5046712;28;20258;-85
2022/06/01 00:31:45;;;;;;;9.10;5.77;;;;;;;11.63;78.41;99618.72;5045910;28;20040;-85
2022/06/01 00:34:10;;;;;;;10.10;6.40;;;;;;;11.46;79.01;99622.56;5044929;28;20415;-85
2022/06/01 00:36:36;;;;;;;11.90;6.33;;;;;;;11.60;78.87;99613.78;5046104;28;20666;-84
2022/06/01 00:39:01;;;;;;;10.73;7.20;;;;;;;11.61;77.80;99610.00;5045471;28;20282;-86
2022/06/01 00:41:29;;;;;;;9.65;6.28;;;;;;;11.58;77.53;99608.63;5045877;28;20308;-85
2022/06/01 00:43:54;;;;;;;10.13;6.18;;;;;;;11.64;76.96;99615.72;5045241;28;20040;-83
2022/06/01 00:46:19;;;;;;;8.02;5.95;;;;;;;11.73;76.61;99609.69;5044438;28;20028;-86
2022/06/01 00:48:50;;;;;;;9.13;6.13;;;;;;;11.76;76.81;99609.13;5045242;28;20070;-85
2022/06/01 00:51:21;;;;;;;9.05;5.20;;;;;;;11.89;75.86;99608.56;5045045;28;20261;-85
2022/06/01 00:53:49;;;;;;;10.70;5.45;;;;;;;11.96;75.44;99607.47;5045092;28;20120;-84
2022/06/01 00:56:21;;;;;;;11.02;6.63;;;;;;;11.74;76.07;99612.13;5044906;28;20043;-86
2022/06/01 00:58:49;;;;;;;10.40;6.90;;;;;;;11.58;76.42;99618.72;5044794;28;20033;-84
2022/06/01 01:01:18;;;;;;;10.65;5.93;;;;;;;11.67;76.46;99598.75;5044404;28;20040;-85
2022/06/01 01:03:58;;;;;;;11.43;6.15;;;;;;;11.42;76.88;99610.56;5044327;28;20506;-84
2022/06/01 01:06:26;;;;;;;8.85;6.18;;;;;;;11.30;77.72;99605.38;5045191;28;20036;-86
2022/06/01 01:08:52;;;;;;;10.98;7.10;;;;;;;11.39;77.04;99614.63;5044995;28;20036;-85
2022/06/01 01:11:25;;;;;;;10.05;6.28;;;;;;;11.60;77.14;99605.59;5044749;28;20041;-86
2022/06/01 01:13:53;;;;;;;12.95;7.60;;;;;;;11.37;77.04;99608.63;5042748;28;20420;-86
2022/06/01 01:16:20;;;;;;;10.48;6.53;;;;;;;11.39;77.30;99606.44;5044431;28;20090;-86
2022/06/01 01:18:47;;;;;;;10.18;7.05;;;;;;;11.39;77.26;99605.66;5045320;28;20474;-85
2022/06/01 01:21:35;;;;;;;10.07;7.10;;;;;;;11.38;76.96;99609.47;5045359;28;20036;-85
2022/06/01 01:24:08;;;;;;;10.52;7.43;;;;;;;11.46;76.48;99608.91;5045203;28;20037;-85
2022/06/01 01:26:35;;;;;;;12.40;7.55;;;;;;;11.51;75.95;99595.25;5045702;28;20647;-85
2022/06/01 01:29:08;;;;;;;10.90;6.13;;;;;;;11.38;76.14;99598.53;5060504;28;20113;-85
2022/06/01 01:31:34;;;;;;;10.38;6.55;;;;;;;11.43;76.17;99598.56;5044610;28;20113;-85
2022/06/01 01:34:00;;;;;;;11.10;7.13;;;;;;;11.40;76.33;99597.19;5044742;28;20119;-85
2022/06/01 01:36:30;;;;;;;15.47;6.67;;;;;;;11.37;76.53;99608.63;5045202;28;20079;-85
2022/06/01 01:39:11;;;;;;;11.52;6.75;;;;;;;11.49;76.51;99605.63;5044704;28;20262;-86
2022/06/01 01:41:44;;;;;;;12.27;8.43;;;;;;;11.25;77.08;99610.84;5044963;28;20029;-85
2022/06/01 01:44:34;;;;;;;10.85;7.18;;;;;;;11.38;76.30;99604.00;5044444;28;20036;-85
2022/06/01 01:46:59;;;;;;;13.48;7.85;;;;;;;11.32;76.19;99604.00;5045659;28;20667;-85
2022/06/01 01:49:31;;;;;;;11.18;7.63;;;;;;;11.38;76.66;99593.91;5056330;28;20028;-85
2022/06/01 01:52:00;;;;;;;11.00;7.40;;;;;;;11.29;76.72;99592.81;5068294;28;20487;-86
2022/06/01 01:54:42;;;;;;;13.63;8.70;;;;;;;11.43;76.46;99595.81;5049860;28;20048;-85
2022/06/01 01:57:26;;;;;;;11.80;8.07;;;;;;;11.31;76.37;99596.91;5048318;28;20036;-84
2022/06/01 02:00:04;;;;;;;12.20;7.03;;;;;;;11.34;76.63;99598.28;5048277;28;20021;-85
2022/06/01 02:02:51;;;;;;;13.32;8.63;;;;;;;11.26;76.66;99607.00;5047239;28;20048;-85
2022/06/01 02:08:31;;;;;;;13.80;9.02;;;;;;;11.36;76.77;99604.28;5048039;28;20048;-86
2022/06/01 02:13:56;;;;;;;14.70;9.82;;;;;;;11.15;77.00;99612.47;5048368;28;20048;-86
2022/06/01 02:16:26;;;;;;;12.82;7.68;;;;;;;11.20;77.22;99612.47;5048278;28;20071;-86
2022/06/01 02:18:56;;;;;;;15.15;8.30;;;;;;;11.19;77.33;99612.72;5048259;28;20025;-85
2022/06/01 02:21:25;;;;;;;13.10;9.15;;;;;;;11.23;76.78;99608.38;5048271;28;20025;-86
2022/06/01 02:23:53;;;;;;;12.43;8.25;;;;;;;11.25;76.46;99600.72;5049011;28;20468;-85
2022/06/01 02:29:14;;;;;;;15.18;9.00;;;;;;;11.12;76.51;99604.00;5048222;28;20086;-85
2022/06/01 02:31:41;;;;;;;14.60;9.10;;;;;;;11.03;77.24;99599.09;5047876;28;20025;-84
2022/06/01 02:34:09;;;;;;;15.60;11.85;;;;;;;10.87;77.75;99595.53;5047525;28;20060;-86
2022/06/01 02:36:35;;;;;;;17.33;9.23;;;;;;;10.85;78.24;99604.00;5048359;28;20777;-84
2022/06/01 02:39:03;;;;;;;15.48;10.13;;;;;;;10.85;78.44;99605.91;5048309;28;20025;-85
2022/06/01 02:44:12;;;;;;;15.38;9.52;;;;;;;11.08;77.01;99601.00;5048315;28;20400;-84
2022/06/01 02:46:37;;;;;;;16.52;10.82;;;;;;;11.07;77.16;99597.47;5047108;28;20029;-85
2022/06/01 02:49:04;;;;;;;19.08;11.35;;;;;;;11.13;76.52;99598.28;5053724;28;20036;-86
2022/06/01 02:51:29;;;;;;;16.10;10.98;;;;;;;10.98;77.55;99601.84;5067756;28;20020;-85
2022/06/01 02:53:55;;;;;;;19.50;11.90;;;;;;;10.96;77.80;99593.09;5054251;28;20392;-86
2022/06/01 02:56:20;;;;;;;21.50;12.52;;;;;;;10.95;77.97;99597.72;5047468;28;20049;-85
2022/06/01 02:58:46;;;;;;;15.93;10.18;;;;;;;10.84;78.48;99607.78;5044193;28;20033;-85
2022/06/01 03:01:11;;;;;;;17.43;13.17;;;;;;;10.97;77.90;99611.09;5060436;28;20141;-84
2022/06/01 03:03:37;;;;;;;16.52;9.88;;;;;;;11.13;77.44;99608.38;5045856;28;20254;-84
2022/06/01 03:06:03;;;;;;;20.58;12.45;;;;;;;11.12;77.12;99614.94;5047459;28;20024;-86
2022/06/01 03:08:28;;;;;;;16.73;11.50;;;;;;;11.19;77.07;99623.66;5047293;28;20438;-84
2022/06/01 03:10:54;;;;;;;18.88;10.57;;;;;;;11.16;77.21;99625.03;5045376;28;20049;-85
2022/06/01 03:13:22;;;;;;;16.42;11.65;;;;;;;11.11;77.32;99626.91;5047148;28;20098;-85
2022/06/01 03:16:03;;;;;;;17.55;11.43;;;;;;;10.90;78.26;99624.19;5047396;28;20033;-86
2022/06/01 03:18:29;;;;;;;16.67;11.38;;;;;;;11.00;78.06;99620.66;5047330;28;20401;-85
2022/06/01 03:20:55;;;;;;;18.02;11.20;;;;;;;11.04;77.40;99627.19;5047024;28;20024;-85
2022/06/01 03:23:20;;;;;;;16.70;10.93;;;;;;;10.95;77.95;99630.47;5046879;28;20030;-85
2022/06/01 03:25:46;;;;;;;17.20;11.80;;;;;;;11.03;77.54;99626.38;5047151;28;20063;-85
2022/06/01 03:28:11;;;;;;;15.57;9.90;;;;;;;10.96;77.67;99631.28;5047558;28;20266;-83
2022/06/01 03:30:37;;;;;;;16.45;9.60;;;;;;;11.01;77.83;99617.63;5046789;28;20763;-85
2022/06/01 03:33:03;;;;;;;18.33;12.70;;;;;;;10.98;77.85;99620.94;5047186;28;20136;-83
2022/06/01 03:35:31;;;;;;;14.50;10.85;;;;;;;10.88;78.13;99620.91;5046781;28;20027;-85
2022/06/01 03:37:57;;;;;;;17.10;10.45;;;;;;;10.90;78.35;99626.91;5046851;28;20644;-86
2022/06/01 03:40:25;;;;;;;18.05;11.55;;;;;;;10.84;78.58;99621.44;5046903;28;20107;-85
2022/06/01 03:42:51;;;;;;;15.80;12.15;;;;;;;10.94;78.69;99619.81;5046304;28;20520;-85
2022/06/01 03:48:15;;;;;;;20.02;12.43;;;;;;;10.73;79.04;99633.41;5009396;28;20055;-85
2022/06/01 03:50:41;;;;;;;16.98;12.20;;;;;;;10.72;78.69;99635.31;5065689;28;20028;-84
2022/06/01 03:53:06;;;;;;;16.48;9.85;;;;;;;10.81;78.68;99632.88;5058751;28;20171;-84
2022/06/01 03:55:32;;;;;;;15.25;9.88;;;;;;;10.86;78.51;99632.88;5045698;28;20143;-85
2022/06/01 03:57:57;;;;;;;20.70;10.77;;;;;;;10.81;78.95;99646.53;5046345;28;21247;-85
2022/06/01 04:00:26;;;;;;;15.00;9.05;;;;;;;10.94;78.56;99638.91;5046670;28;20049;-85
2022/06/01 04:02:52;;;;;;;18.02;10.43;;;;;;;10.86;78.86;99645.72;5046074;28;20493;-84
2022/06/01 04:05:19;;;;;;;17.23;10.93;;;;;;;10.91;78.05;99653.06;5044731;28;20029;-84
2022/06/01 04:07:44;;;;;;;19.77;11.77;;;;;;;10.93;78.19;99656.34;5045912;28;20056;-85
2022/06/01 04:10:09;;;;;;;14.77;10.88;;;;;;;10.95;78.66;99656.91;5044952;28;20410;-86
2022/06/01 04:12:36;;;;;;;16.33;10.07;;;;;;;11.05;77.90;99651.47;5045915;28;20033;-85
2022/06/01 04:15:02;;;;;;;14.15;9.85;;;;;;;10.97;78.31;99654.72;5046217;28;20052;-85
2022/06/01 04:17:27;;;;;;;18.58;11.63;;;;;;;10.95;78.54;99663.19;5045100;28;20021;-85
2022/06/01 04:19:52;;;;;;;21.00;11.27;;;;;;;10.81;78.64;99660.16;5045618;28;20416;-84
2022/06/01 04:25:39;;;;;;;15.40;10.15;;;;;;;10.91;78.62;99664.81;5025436;28;20285;-85
2022/06/01 04:28:04;;;;;;;16.65;9.77;;;;;;;10.92;78.35;99657.47;5026075;28;20018;-85
2022/06/01 04:30:30;;;;;;;17.73;11.15;;;;;;;10.93;78.43;99659.91;5026020;28;20021;-85
2022/06/01 04:32:56;;;;;;;16.45;9.85;;;;;;;10.89;79.01;99663.44;5030292;28;20025;-86
2022/06/01 04:35:23;;;;;;;17.00;10.98;;;;;;;10.94;78.32;99660.75;5043346;28;20037;-84
2022/06/01 04:37:49;;;;;;;15.10;9.90;;;;;;;10.89;78.79;99667.00;5046097;28;20064;-85
2022/06/01 04:40:16;;;;;;;20.27;12.38;;;;;;;10.79;79.19;99662.34;5045387;28;20108;-85
2022/06/01 04:42:42;;;;;;;15.38;10.77;;;;;;;10.86;78.83;99665.63;5044980;28;20029;-85
2022/06/01 04:45:11;;;;;;;17.55;9.95;;;;;;;10.92;79.06;99657.47;5045987;28;20049;-86
2022/06/01 04:47:38;;;;;;;14.48;9.25;;;;;;;10.97;78.57;99662.91;5044499;28;20037;-85
2022/06/01 04:50:05;;;;;;;17.80;11.38;;;;;;;10.83;79.31;99666.16;5059103;28;20033;-85
2022/06/01 04:52:30;;;;;;;18.77;9.68;;;;;;;10.89;78.97;99663.44;5063561;28;20033;-84
2022/06/01 04:54:56;;;;;;;13.75;10.02;;;;;;;10.84;79.86;99656.88;5046037;28;20036;-85
2022/06/01 04:57:21;;;;;;;15.48;9.20;;;;;;;10.98;79.50;99659.91;5044686;28;20025;-85
2022/06/01 04:59:46;;;;;;;15.10;9.93;;;;;;;10.98;79.46;99659.13;5046137;28;20037;-85
2022/06/01 05:02:11;;;;;;;16.98;10.32;;;;;;;11.11;78.90;99657.75;5045283;28;20121;-85
2022/06/01 05:04:38;;;;;;;15.50;10.60;;;;;;;11.11;78.92;99657.75;5043551;28;20132;-85
2022/06/01 05:07:03;;;;;;;12.48;8.23;;;;;;;11.17;78.97;99661.31;5045857;28;20262;-85
2022/06/01 05:09:28;;;;;;;14.35;9.80;;;;;;;11.15;79.18;99660.75;5045099;28;20032;-84
2022/06/01 05:11:54;;;;;;;14.00;8.85;;;;;;;11.16;79.65;99656.94;5043988;28;20140;-83
2022/06/01 05:14:32;;;;;;;14.23;10.45;;;;;;;11.30;78.89;99662.69;5044922;28;20040;-84
2022/06/01 05:17:01;;;;;;;16.65;11.35;;;;;;;11.36;79.36;99660.78;5045054;28;20025;-84
2022/06/01 05:19:27;;;;;;;21.70;9.38;;;;;;;11.42;78.92;99662.41;5045254;28;20456;-84
2022/06/01 05:21:53;;;;;;;14.90;9.55;;;;;;;11.41;79.26;99663.53;5046550;28;20112;-85
2022/06/01 05:24:18;;;;;;;14.02;9.55;;;;;;;11.50;79.15;99661.03;5048184;28;20043;-85
2022/06/01 05:26:44;;;;;;;20.00;11.68;;;;;;;11.46;78.71;99660.78;5047696;28;20036;-85
2022/06/01 05:29:09;;;;;;;21.73;11.53;;;;;;;11.48;78.89;99664.06;5048798;28;20492;-86
2022/06/01 05:31:34;;;;;;;20.88;11.35;;;;;;;11.49;78.66;99665.69;5047029;28;20291;-85
2022/06/01 05:33:59;;;;;;;15.98;11.65;;;;;;;11.52;78.41;99665.16;5047959;28;20790;-85
2022/06/01 05:36:26;;;;;;;19.57;11.03;;;;;;;11.52;78.12;99670.59;5047830;28;20547;-86
2022/06/01 05:38:51;;;;;;;23.63;10.73;;;;;;;11.64;78.24;99672.22;5048261;28;20292;-84
2022/06/01 05:41:16;;;;;;;20.73;11.13;;;;;;;11.70;78.08;99662.94;5047486;28;20037;-85
2022/06/01 05:43:42;;;;;;;15.45;10.15;;;;;;;11.72;78.16;99674.41;5046153;28;20269;-85
2022/06/01 05:46:07;;;;;;;19.58;11.98;;;;;;;11.70;78.32;99673.88;5046928;28;20040;-85
2022/06/01 05:48:33;;;;;;;19.85;11.15;;;;;;;11.79;78.50;99672.22;5047148;28;20037;-86
2022/06/01 05:50:59;;;;;;;16.83;11.10;;;;;;;11.87;78.37;99664.56;5048696;28;20067;-83
2022/06/01 05:53:24;;;;;;;20.45;10.65;;;;;;;11.98;77.27;99671.63;5045783;28;20029;-83
2022/06/01 05:55:50;;;;;;;18.98;12.23;;;;;;;11.90;78.06;99677.66;5046481;28;20063;-84
2022/06/01 05:58:21;;;;;;;18.55;11.85;;;;;;;11.99;77.22;99667.81;5046983;28;20483;-85
2022/06/01 06:03:50;;;;;;;15.35;10.35;;;;;;;11.99;77.60;99672.47;5045772;28;20130;-84
2022/06/01 06:06:16;;;;;;;25.80;13.52;;;;;;;12.09;77.38;99666.16;5045657;28;20067;-85
2022/06/01 06:08:46;;;;;;;18.50;12.77;;;;;;;12.07;77.40;99671.06;5046510;28;20039;-85
2022/06/01 06:11:14;;;;;;;20.55;14.52;;;;;;;12.00;77.35;99672.19;5044624;28;20045;-83
2022/06/01 06:13:39;;;;;;;19.60;10.73;;;;;;;12.00;77.34;99669.44;5042596;28;20028;-84
2022/06/01 06:16:06;;;;;;;18.50;11.75;;;;;;;12.08;77.04;99672.72;5042939;28;20032;-85
2022/06/01 06:18:31;;;;;;;18.35;10.88;;;;;;;12.01;76.98;99679.28;5042998;28;20047;-85
2022/06/01 06:20:57;;;;;;;17.67;10.38;;;;;;;12.00;76.97;99677.63;5042868;28;20052;-83
2022/06/01 06:23:22;;;;;;;21.10;10.88;;;;;;;12.07;77.24;99684.72;5042866;28;20029;-85
2022/06/01 06:25:48;;;;;;;16.27;9.48;;;;;;;12.15;76.72;99681.47;5043484;28;20040;-85
2022/06/01 06:28:13;;;;;;;18.85;11.05;;;;;;;12.16;76.08;99679.56;5043404;28;20112;-85
2022/06/01 06:30:40;;;;;;;18.95;10.82;;;;;;;12.14;76.12;99691.56;5043011;28;20082;-84
2022/06/01 06:33:06;;;;;;;16.95;10.57;;;;;;;12.23;76.08;99699.22;5047628;28;20036;-87
2022/06/01 06:35:32;;;;;;;17.20;10.70;;;;;;;12.37;76.40;99699.44;5054571;28;20086;-86
2022/06/01 06:37:58;;;;;;;15.63;10.65;;;;;;;12.56;75.08;99707.03;5043623;28;20020;-84
2022/06/01 06:40:24;;;;;;;15.95;10.00;;;;;;;12.52;75.39;99703.22;5046900;28;20025;-83
2022/06/01 06:42:49;;;;;;;16.13;10.77;;;;;;;12.48;75.48;99694.75;5044272;28;20053;-85
2022/06/01 06:45:14;;;;;;;15.57;9.90;;;;;;;12.58;75.88;99704.84;5042128;28;20462;-84
2022/06/01 06:47:41;;;;;;;15.05;9.38;;;;;;;12.51;74.76;99699.66;5042527;28;20295;-83
2022/06/01 06:50:09;;;;;;;17.42;10.75;;;;;;;12.43;75.35;99701.06;5041856;28;20063;-84
2022/06/01 06:52:34;;;;;;;15.95;10.35;;;;;;;12.55;74.90;99700.75;5044065;28;20021;-85
2022/06/01 06:54:59;;;;;;;16.80;9.80;;;;;;;12.70;74.48;99705.34;5047501;28;20047;-88
2022/06/01 06:57:25;;;;;;;13.85;8.05;;;;;;;12.69;73.73;99711.88;5047008;28;20282;-87
2022/06/01 06:59:50;;;;;;;20.33;8.05;;;;;;;12.81;73.54;99702.56;5043288;28;20301;-87
2022/06/01 07:02:16;;;;;;;15.52;8.10;;;;;;;12.92;73.21;99706.03;5040152;28;20586;-87
2022/06/01 07:04:42;;;;;;;11.98;7.43;;;;;;;12.86;72.75;99716.19;5042215;28;20086;-86
2022/06/01 07:07:08;;;;;;;15.10;9.00;;;;;;;12.75;72.71;99718.19;5042200;28;20163;-88
2022/06/01 07:13:03;;;;;;;16.63;7.55;;;;;;;12.92;72.38;99720.53;5020329;28;20083;-85
2022/06/01 07:15:28;;;;;;;11.98;7.20;;;;;;;12.93;72.29;99724.94;5041272;28;20040;-87
2022/06/01 07:17:53;;;;;;;9.20;5.73;;;;;;;13.01;72.35;99714.47;5041227;28;20037;-88
2022/06/01 07:20:19;;;;;;;9.38;4.63;;;;;;;13.17;71.76;99724.25;5042425;28;20305;-87
2022/06/01 07:22:44;;;;;;;11.73;5.15;;;;;;;13.31;71.05;99726.34;5041671;28;20036;-86
2022/06/01 07:25:10;;;;;;;11.65;5.65;;;;;;;13.27;70.87;99719.78;5041093;28;20032;-87
2022/06/01 07:27:36;;;;;;;8.70;4.38;;;;;;;13.48;70.98;99719.66;5040016;28;20032;-86
2022/06/01 07:30:04;;;;;;;16.02;6.75;;;;;;;13.62;70.09;99726.16;5042804;28;20029;-86
2022/06/01 07:32:29;;;;;;;10.45;5.78;;;;;;;13.67;70.23;99716.25;5042240;28;20122;-86
2022/06/01 07:34:55;;;;;;;10.23;5.18;;;;;;;13.77;70.06;99713.41;5042091;28;20123;-85
2022/06/01 07:43:06;;;;;;;11.57;4.15;;;;;;;13.69;69.69;99714.06;5042563;28;20565;-86
2022/06/01 07:45:38;;;;;;;10.13;4.15;;;;;;;13.73;69.33;99723.34;5041143;28;20451;-86
2022/06/01 07:48:05;;;;;;;5.22;2.65;;;;;;;13.71;68.18;99720.06;5041491;28;20052;-86
2022/06/01 07:50:31;;;;;;;6.80;2.70;;;;;;;13.85;68.16;99723.75;5039794;28;20079;-83
2022/06/01 07:52:57;;;;;;;28.63;5.95;;;;;;;13.97;68.06;99728.06;5040599;28;20048;-84
2022/06/01 07:55:23;;;;;;;15.63;3.33;;;;;;;13.99;68.19;99728.59;5040932;28;20072;-85
2022/06/01 07:57:48;;;;;;;5.00;2.50;;;;;;;14.04;68.44;99720.28;5040437;28;20113;-85
2022/06/01 08:00:14;;;;;;;8.90;2.40;;;;;;;14.08;68.33;99721.34;5040868;28;20066;-85
2022/06/01 08:02:39;;;;;;;5.70;2.95;;;;;;;14.07;67.40;99729.88;5040230;28;20662;-85
2022/06/01 08:05:06;;;;;;;6.38;2.85;;;;;;;13.98;66.79;99732.41;5040741;28;20674;-84
2022/06/01 08:07:33;;;;;;;7.55;3.40;;;;;;;13.91;66.34;99720.97;5040577;28;20033;-85
2022/06/01 08:09:59;;;;;;;5.78;2.60;;;;;;;13.97;67.26;99725.31;5040720;28;20119;-84
2022/06/01 08:15:09;;;;;;;6.45;2.55;;;;;;;14.22;66.11;99731.63;5040748;28;20367;-85
2022/06/01 08:17:35;;;;;;;6.25;2.42;;;;;;;14.21;65.91;99735.50;5040491;28;20032;-85
2022/06/01 08:20:00;;;;;;;7.75;2.65;;;;;;;14.11;65.91;99741.91;5040463;28;20385;-84
2022/06/01 08:22:25;;;;;;;6.43;2.80;;;;;;;14.25;65.40;99736.53;5040472;28;20507;-85
2022/06/01 08:24:50;;;;;;;4.40;2.50;;;;;;;14.43;65.14;99742.38;5040817;28;20033;-84
2022/06/01 08:27:16;;;;;;;7.60;3.03;;;;;;;14.30;64.34;99741.16;5040598;28;20174;-84
2022/06/01 08:32:26;;;;;;;8.10;2.53;;;;;;;14.40;64.08;99742.97;5037732;28;20277;-85
2022/06/01 08:34:51;;;;;;;5.82;3.35;;;;;;;14.41;63.54;99744.59;5040321;28;20037;-85
2022/06/01 08:37:17;;;;;;;7.53;2.77;;;;;;;14.26;64.17;99748.34;5038988;28;20771;-84
2022/06/01 08:39:42;;;;;;;4.88;3.10;;;;;;;14.42;63.99;99746.25;5040414;28;20366;-85
2022/06/01 08:42:12;;;;;;;4.30;2.40;;;;;;;14.52;63.85;99746.09;5040483;28;20035;-85
2022/06/01 08:44:40;;;;;;;4.47;2.08;;;;;;;14.61;64.49;99731.75;5039446;28;20369;-86
2022/06/01 08:47:11;;;;;;;8.18;3.15;;;;;;;14.68;62.42;99745.94;5037660;28;20072;-84
2022/06/01 08:49:38;;;;;;;6.85;2.42;;;;;;;15.04;61.90;99745.50;5049850;28;20471;-85
2022/06/01 08:52:04;;;;;;;6.32;2.03;;;;;;;15.00;61.65;99744.47;5058172;28;20387;-85
2022/06/01 08:54:30;;;;;;;4.13;2.05;;;;;;;15.07;61.38;99749.59;5040533;28;20033;-85
2022/06/01 08:57:03;;;;;;;6.15;2.20;;;;;;;15.29;60.07;99746.25;5039932;28;20029;-84
2022/06/01 08:59:37;;;;;;;4.90;1.88;;;;;;;15.28;60.43;99749.28;5039470;28;20116;-85
2022/06/01 09:02:31;;;;;;;6.78;1.88;;;;;;;15.23;61.22;99746.63;5039102;28;20344;-85
2022/06/01 09:05:19;;;;;;;7.15;2.45;;;;;;;15.14;59.35;99743.72;5019865;28;20029;-83
2022/06/01 09:07:48;;;;;;;4.78;2.83;;;;;;;15.23;59.09;99746.63;5020148;28;20026;-85
2022/06/01 09:10:33;;;;;;;5.60;2.20;;;;;;;15.16;58.44;99757.97;5019994;28;20411;-85
2022/06/01 09:13:08;;;;;;;6.07;2.08;;;;;;;15.21;58.32;99746.94;5025141;28;20450;-85
2022/06/01 09:15:59;;;;;;;3.35;2.20;;;;;;;15.36;58.95;99750.56;5039724;28;20029;-84
2022/06/01 09:18:28;;;;;;;5.80;2.05;;;;;;;15.35;59.32;99746.19;5039509;28;20029;-85
2022/06/01 09:23:41;;;;;;;4.10;1.75;;;;;;;15.36;57.84;99745.06;5039721;28;20048;-83
2022/06/01 09:26:07;;;;;;;3.15;1.35;;;;;;;15.62;58.03;99752.94;5039491;28;20338;-85
2022/06/01 09:28:43;;;;;;;5.35;2.30;;;;;;;15.26;57.70;99749.59;5039738;28;20029;-85
2022/06/01 09:31:22;;;;;;;2.50;1.08;;;;;;;15.13;57.68;99753.88;5039598;28;20072;-83
2022/06/01 09:33:48;;;;;;;6.28;1.75;;;;;;;15.23;58.38;99750.22;5039221;28;20067;-84
2022/06/01 09:36:34;;;;;;;3.80;1.90;;;;;;;15.52;57.67;99748.38;5039379;28;20025;-85
2022/06/01 09:39:03;;;;;;;3.53;1.40;;;;;;;15.82;57.52;99749.03;5038681;28;20140;-84
2022/06/01 09:41:36;;;;;;;3.10;1.48;;;;;;;15.71;57.07;99748.38;5039097;28;20060;-85
2022/06/01 09:44:06;;;;;;;4.50;1.67;;;;;;;15.82;56.59;99743.53;5039235;28;20057;-84
2022/06/01 09:46:47;;;;;;;2.63;1.55;;;;;;;15.78;56.69;99738.94;5038960;28;20071;-85
2022/06/01 09:49:32;;;;;;;6.65;2.22;;;;;;;15.95;56.23;99741.09;5046790;28;20033;-85
2022/06/01 09:52:01;;;;;;;4.30;1.42;;;;;;;16.27;56.13;99738.66;5058607;28;20123;-85
2022/06/01 09:54:32;;;;;;;3.70;2.20;;;;;;;16.17;55.81;99732.22;5040834;28;20048;-85
2022/06/01 09:57:16;;;;;;;5.07;1.88;;;;;;;16.16;55.21;99738.84;5039261;28;20472;-84
2022/06/01 10:08:13;;;;;;;3.53;1.60;;;;;;;17.18;52.08;99737.38;5041040;28;21002;-84
2022/06/01 10:10:40;;;;;;;7.05;2.20;;;;;;;17.14;50.89;99731.69;5042159;28;20039;-84
2022/06/01 10:13:06;;;;;;;3.33;1.42;;;;;;;17.12;51.44;99729.25;5041590;28;20048;-84
2022/06/01 10:15:42;;;;;;;2.92;1.58;;;;;;;17.04;50.54;99728.00;5041630;28;20085;-85
2022/06/01 10:18:26;;;;;;;2.17;1.23;;;;;;;17.03;49.19;99731.06;5041684;28;20423;-85
2022/06/01 10:21:05;;;;;;;2.70;1.35;;;;;;;17.07;48.73;99729.31;5041463;28;20025;-84
2022/06/01 10:23:39;;;;;;;5.05;2.28;;;;;;;16.90;49.90;99727.22;5042020;28;20561;-85
2022/06/01 10:26:10;;;;;;;3.75;1.95;;;;;;;17.24;49.71;99736.97;5042749;28;20031;-85
2022/06/01 10:28:40;;;;;;;5.57;2.03;;;;;;;17.17;50.18;99724.75;5042148;28;20051;-84
2022/06/01 10:31:16;;;;;;;3.55;1.70;;;;;;;17.49;49.59;99726.44;5041869;28;20024;-84
2022/06/01 10:33:47;;;;;;;5.72;1.90;;;;;;;17.88;48.39;99726.06;5042082;28;20033;-84
2022/06/01 10:36:26;;;;;;;6.18;2.55;;;;;;;17.79;48.68;99731.53;5041808;28;20033;-84
2022/06/01 10:39:07;;;;;;;5.40;3.13;;;;;;;17.55;48.40;99724.41;5041525;28;20036;-84
2022/06/01 10:41:41;;;;;;;6.05;2.42;;;;;;;17.45;47.82;99727.41;5041978;28;20025;-84
2022/06/01 10:44:16;;;;;;;4.95;1.63;;;;;;;17.34;47.27;99729.56;5041498;28;20039;-84
2022/06/01 10:46:50;;;;;;;6.88;1.92;;;;;;;17.30;48.14;99729.41;5041682;28;20060;-84
2022/06/01 10:49:40;;;;;;;3.15;1.60;;;;;;;17.42;47.63;99741.78;5041432;28;20120;-85
2022/06/01 10:52:25;;;;;;;7.88;2.45;;;;;;;17.43;46.91;99732.41;5041654;28;20325;-84
2022/06/01 10:55:15;;;;;;;2.72;1.27;;;;;;;17.44;48.33;99729.34;5041928;28;20048;-84
2022/06/01 10:57:44;;;;;;;3.10;1.58;;;;;;;17.94;47.85;99737.78;5041969;28;20037;-84
2022/06/01 11:00:30;;;;;;;3.63;1.35;;;;;;;18.29;47.85;99735.22;5041642;28;20380;-86
2022/06/01 11:03:43;;;;;;;2.47;1.23;;;;;;;18.71;45.45;99728.56;5046818;28;20033;-86
2022/06/01 11:06:53;;;;;;;3.10;1.33;;;;;;;17.93;45.19;99741.66;5010520;28;20073;-89
2022/06/01 11:09:39;;;;;;;4.45;1.50;;;;;;;17.88;45.51;99737.09;5045785;28;20606;-84
2022/06/01 11:12:28;;;;;;;3.83;1.35;;;;;;;18.15;45.74;99738.06;5039830;28;20934;-87
2022/06/01 11:15:15;;;;;;;3.47;1.67;;;;;;;18.50;45.56;99726.38;5037112;28;20285;-83
2022/06/01 11:17:43;;;;;;;2.78;1.60;;;;;;;18.48;45.43;99736.94;5034750;28;20029;-85
2022/06/01 11:20:25;;;;;;;11.15;2.53;;;;;;;18.13;46.37;99732.03;5046152;28;20035;-88
2022/06/01 11:23:02;;;;;;;4.03;1.70;;;;;;;18.04;47.36;99734.75;5045217;28;20037;-85
2022/06/01 11:25:41;;;;;;;5.43;2.17;;;;;;;18.51;46.59;99725.22;5046044;28;20032;-85
2022/06/01 11:28:16;;;;;;;3.13;1.70;;;;;;;18.40;46.02;99726.66;5046638;28;20033;-87
2022/06/01 11:30:59;;;;;;;3.13;1.88;;;;;;;18.60;45.64;99722.50;5046915;28;20806;-88
2022/06/01 11:33:38;;;;;;;3.60;1.63;;;;;;;18.46;47.05;99728.16;5046559;28;20037;-88
2022/06/01 11:36:25;;;;;;;4.97;2.28;;;;;;;18.05;46.66;99730.88;5034049;28;20528;-87
2022/06/01 11:39:29;;;;;;;2.67;1.48;;;;;;;17.72;46.88;99734.72;5019187;28;20144;-86
2022/06/01 11:42:10;;;;;;;4.72;1.48;;;;;;;17.44;47.51;99739.53;5019429;28;20049;-88
2022/06/01 11:44:38;;;;;;;4.10;1.52;;;;;;;17.25;48.57;99738.59;5039786;28;20037;-87
2022/06/01 11:47:25;;;;;;;2.78;1.52;;;;;;;17.12;49.32;99733.91;5041555;28;20095;-87
2022/06/01 11:50:13;;;;;;;3.03;1.88;;;;;;;16.90;50.84;99743.75;5038756;28;20033;-90
2022/06/01 11:52:51;;;;;;;6.85;2.03;;;;;;;16.85;51.46;99741.91;5041229;28;20555;-89
2022/06/01 11:55:30;;;;;;;4.93;2.30;;;;;;;16.82;51.38;99741.72;5044245;28;20033;-88
2022/06/01 11:58:36;;;;;;;6.07;1.98;;;;;;;16.74;51.54;99751.50;5044533;28;20024;-88
2022/06/01 12:01:12;;;;;;;4.47;2.58;;;;;;;16.54;51.21;99746.09;5033338;28;20119;-89
2022/06/01 12:04:00;;;;;;;6.18;2.50;;;;;;;16.60;52.29;99757.81;5044850;28;20033;-87
2022/06/01 12:06:44;;;;;;;4.82;2.53;;;;;;;16.21;54.54;99762.69;5003036;28;20045;-88
2022/06/01 12:09:18;;;;;;;5.13;2.85;;;;;;;16.17;55.81;99759.72;5025997;28;20112;-88
2022/06/01 12:11:46;;;;;;;5.22;2.65;;;;;;;16.03;56.98;99772.63;5030281;28;20463;-89
2022/06/01 12:14:37;;;;;;;7.13;2.45;;;;;;;15.82;56.94;99778.44;5044153;28;20119;-87
2022/06/01 12:17:18;;;;;;;8.70;3.78;;;;;;;15.83;59.21;99775.38;5040328;28;20033;-85
2022/06/01 12:19:47;;;;;;;5.32;2.70;;;;;;;15.90;60.32;99775.00;5042577;28;20063;-89
2022/06/01 12:28:47;;;;;;;4.53;2.88;;;;;;;15.42;61.91;99787.81;5040199;28;20127;-84
2022/06/01 12:31:17;;;;;;;6.22;4.25;;;;;;;15.45;62.74;99780.94;5038887;28;20039;-85
2022/06/01 12:34:01;;;;;;;5.95;3.17;;;;;;;15.99;63.40;99772.38;5039162;28;20056;-84
2022/06/01 12:36:30;;;;;;;10.63;3.63;;;;;;;16.12;62.31;99764.50;5039455;28;20029;-85
2022/06/01 12:38:56;;;;;;;7.38;3.55;;;;;;;16.09;62.96;99774.16;5039683;28;20379;-84